Wrightsville, Georgia
Current Conditions -  °F | °C
As of 5:35 PM on Sunday 21 Dec 2014 (Local Time) from KOKZ Reporting Station
Overcast Overcast  
Wind Chill: 50°   Ceiling: 2000
Heat Index: 50°   Visibility: 10mi
Dew Point: 45°   Wind: 9mph
Humidity: 81%   Direction: 100°E
Pressure: 30.14"   Gusts: NA
Location:  32.73°N, 82.72°W
Report Text: KOKZ 212235Z AUTO 10008KT 10SM OVC020 10/07 A3014 RMK AO2 T01020071
Loading
Personal Weather Stations






























Interactive Weather Map New forecast layout! Learn more

10-Day Weather Forecast

Advertisements
Track Severe Weather on mobile